Time;durP1;ratioP1;P1;durP2;ratioP2;P2;SDS_P1;SDS_P2;PMS_P1;PMS_P2;Temp;Humidity;BMP_temperature;BMP_pressure;BME280_temperature;BME280_humidity;BME280_pressure;Samples;Min_cycle;Max_cycle;Signal;HPM_P1;HPM_P2
2024/01/06 00:00:18;;;;;;;22.35;10.90;;;;;;;6.07;100.00;100235.75;5047252;28;20472;-76
2024/01/06 00:02:44;;;;;;;28.42;12.48;;;;;;;6.05;100.00;100238.59;5048425;28;20041;-76
2024/01/06 00:05:09;;;;;;;25.55;11.30;;;;;;;6.03;100.00;100242.44;5048394;28;20476;-76
2024/01/06 00:07:34;;;;;;;23.00;9.82;;;;;;;6.02;100.00;100246.88;5048332;28;20511;-76
2024/01/06 00:10:00;;;;;;;26.33;11.10;;;;;;;5.98;100.00;100244.81;5048202;28;20116;-76
2024/01/06 00:12:25;;;;;;;23.38;10.10;;;;;;;5.93;100.00;100251.47;5048290;28;20032;-76
2024/01/06 00:14:50;;;;;;;24.52;10.10;;;;;;;5.87;100.00;100254.81;5048341;28;20052;-76
2024/01/06 00:17:16;;;;;;;21.80;8.90;;;;;;;5.83;100.00;100258.81;5030411;28;20033;-76
2024/01/06 00:19:42;;;;;;;25.73;10.82;;;;;;;5.81;100.00;100267.91;5049788;28;20040;-76
2024/01/06 00:22:07;;;;;;;23.00;9.00;;;;;;;5.81;100.00;100276.66;5051706;28;20078;-76
2024/01/06 00:24:33;;;;;;;22.00;8.85;;;;;;;5.79;100.00;100277.84;5051729;28;20056;-76
2024/01/06 00:26:58;;;;;;;22.25;8.75;;;;;;;5.74;100.00;100273.13;5052005;28;20056;-76
2024/01/06 00:29:24;;;;;;;26.95;8.75;;;;;;;5.76;100.00;100279.03;5051762;28;20043;-76
2024/01/06 00:31:49;;;;;;;23.10;10.23;;;;;;;5.75;100.00;100289.81;5051692;28;20025;-76
2024/01/06 00:34:14;;;;;;;22.80;10.60;;;;;;;5.72;100.00;100280.41;5051613;28;20033;-76
2024/01/06 00:36:40;;;;;;;21.92;9.48;;;;;;;5.68;100.00;100282.56;5051456;28;20567;-76
2024/01/06 00:39:05;;;;;;;22.80;9.25;;;;;;;5.67;100.00;100288.88;5051518;28;20031;-76
2024/01/06 00:41:30;;;;;;;22.90;10.63;;;;;;;5.64;100.00;100286.59;5051300;28;20029;-76
2024/01/06 00:43:55;;;;;;;24.25;9.50;;;;;;;5.62;100.00;100283.28;5051421;28;20098;-76
2024/01/06 00:46:21;;;;;;;21.98;9.82;;;;;;;5.61;100.00;100283.50;5051386;28;20105;-76
2024/01/06 00:48:46;;;;;;;24.55;11.95;;;;;;;5.59;100.00;100285.50;5051054;28;20056;-76
2024/01/06 00:51:11;;;;;;;25.23;10.35;;;;;;;5.56;100.00;100293.78;5051257;28;20093;-76
2024/01/06 00:53:37;;;;;;;23.95;9.30;;;;;;;5.52;100.00;100287.19;5051060;28;20127;-76
2024/01/06 00:56:02;;;;;;;20.52;8.90;;;;;;;5.51;100.00;100294.31;5051272;28;20071;-76
2024/01/06 00:58:28;;;;;;;22.33;10.13;;;;;;;5.51;100.00;100299.59;5051095;28;20472;-77
2024/01/06 01:00:53;;;;;;;22.20;8.68;;;;;;;5.49;100.00;100294.47;5051101;28;20123;-76
2024/01/06 01:03:18;;;;;;;22.98;9.93;;;;;;;5.46;100.00;100304.59;5049666;28;20064;-76
2024/01/06 01:05:44;;;;;;;22.27;9.35;;;;;;;5.44;100.00;100301.28;5051007;28;20178;-76
2024/01/06 01:08:09;;;;;;;23.25;10.45;;;;;;;5.45;100.00;100306.41;5050992;28;20032;-76
2024/01/06 01:10:35;;;;;;;23.80;11.30;;;;;;;5.44;100.00;100314.53;5050859;28;20204;-76
2024/01/06 01:13:00;;;;;;;23.52;10.70;;;;;;;5.41;100.00;100314.88;5050887;28;20476;-76
2024/01/06 01:15:25;;;;;;;22.05;9.45;;;;;;;5.39;100.00;100307.09;5050609;28;20087;-76
2024/01/06 01:17:51;;;;;;;21.17;8.57;;;;;;;5.31;100.00;100299.22;5050811;28;20048;-76
2024/01/06 01:20:16;;;;;;;24.15;8.98;;;;;;;5.32;100.00;100307.97;5050546;28;20049;-76
2024/01/06 01:22:41;;;;;;;20.25;7.70;;;;;;;5.26;100.00;100305.03;5049298;28;20017;-76
2024/01/06 01:25:08;;;;;;;24.30;9.70;;;;;;;5.31;100.00;100320.38;5050432;28;20040;-76
2024/01/06 01:27:34;;;;;;;18.45;7.93;;;;;;;5.25;100.00;100327.19;5050657;28;20383;-76
2024/01/06 01:29:59;;;;;;;19.08;8.20;;;;;;;5.25;100.00;100327.19;5049749;28;20213;-76
2024/01/06 01:32:25;;;;;;;20.95;8.93;;;;;;;5.20;100.00;100321.63;5050502;28;20484;-76
2024/01/06 01:34:50;;;;;;;20.00;9.43;;;;;;;5.23;100.00;100334.47;5050461;28;20032;-76
2024/01/06 01:37:16;;;;;;;22.73;10.52;;;;;;;5.15;100.00;100325.78;5050343;28;20078;-76
2024/01/06 01:39:41;;;;;;;19.65;7.95;;;;;;;5.17;100.00;100335.19;5050325;28;20110;-76
2024/01/06 01:42:06;;;;;;;18.75;9.30;;;;;;;5.18;100.00;100347.41;5049016;28;20029;-76
2024/01/06 01:44:32;;;;;;;19.38;7.72;;;;;;;5.19;100.00;100348.25;5050290;28;20032;-76
2024/01/06 01:46:58;;;;;;;21.20;10.05;;;;;;;5.19;100.00;100353.53;5050203;28;20040;-76
2024/01/06 01:49:24;;;;;;;16.33;7.10;;;;;;;5.14;100.00;100350.59;5049860;28;20068;-76
2024/01/06 01:51:50;;;;;;;20.25;7.45;;;;;;;5.16;100.00;100356.50;5050170;28;20025;-76
2024/01/06 01:54:15;;;;;;;17.77;7.70;;;;;;;5.13;100.00;100344.44;5049980;28;20036;-76
2024/01/06 01:56:42;;;;;;;19.80;8.95;;;;;;;5.10;100.00;100360.66;5050062;28;20071;-76
2024/01/06 01:59:15;;;;;;;22.23;8.95;;;;;;;5.11;100.00;100364.13;5050045;28;20167;-76
2024/01/06 02:01:40;;;;;;;20.38;9.73;;;;;;;5.10;100.00;100362.47;5049816;28;20078;-76
2024/01/06 02:04:06;;;;;;;20.30;8.35;;;;;;;5.10;100.00;100367.78;5049854;28;20028;-76
2024/01/06 02:06:31;;;;;;;17.60;6.90;;;;;;;5.08;100.00;100367.13;5049746;28;20044;-76
2024/01/06 02:08:57;;;;;;;20.02;8.57;;;;;;;5.03;100.00;100367.63;5049799;28;20028;-76
2024/01/06 02:11:22;;;;;;;19.05;8.00;;;;;;;5.02;100.00;100379.19;5049601;28;20104;-76
2024/01/06 02:13:48;;;;;;;23.27;9.82;;;;;;;4.97;100.00;100378.88;5048475;28;20718;-76
2024/01/06 02:16:13;;;;;;;18.67;7.40;;;;;;;4.95;100.00;100388.81;5049641;28;20485;-76
2024/01/06 02:18:39;;;;;;;19.30;8.23;;;;;;;4.89;100.00;100382.38;5048198;28;20161;-76
2024/01/06 02:21:06;;;;;;;15.68;6.78;;;;;;;4.84;100.00;100382.88;5049530;28;20036;-76
2024/01/06 02:23:35;;;;;;;16.15;7.20;;;;;;;4.81;100.00;100396.44;5049221;28;20207;-76
2024/01/06 02:26:01;;;;;;;17.45;7.05;;;;;;;4.74;100.00;100395.50;5049229;28;20063;-76
2024/01/06 02:28:26;;;;;;;15.10;6.00;;;;;;;4.73;100.00;100411.50;5049556;28;20488;-76
2024/01/06 02:30:52;;;;;;;15.30;6.28;;;;;;;4.64;100.00;100400.16;5049352;28;20035;-76
2024/01/06 02:33:19;;;;;;;15.43;5.90;;;;;;;4.68;100.00;100417.28;5049352;28;20465;-76
2024/01/06 02:35:47;;;;;;;12.40;4.65;;;;;;;4.67;100.00;100423.59;5049413;28;20043;-76
2024/01/06 02:38:12;;;;;;;14.82;7.20;;;;;;;4.66;100.00;100418.44;5049184;28;20606;-76
2024/01/06 02:40:38;;;;;;;16.25;5.90;;;;;;;4.65;100.00;100424.75;5049174;28;20128;-76
2024/01/06 02:43:03;;;;;;;17.73;6.78;;;;;;;4.61;100.00;100433.00;5049201;28;20115;-76
2024/01/06 02:45:29;;;;;;;14.43;6.15;;;;;;;4.54;100.00;100425.91;5049192;28;20033;-76
2024/01/06 02:47:54;;;;;;;13.15;5.38;;;;;;;4.56;100.00;100437.16;5049033;28;20025;-76
2024/01/06 02:50:19;;;;;;;14.07;6.60;;;;;;;4.54;100.00;100432.03;5049123;28;20059;-76
2024/01/06 02:52:47;;;;;;;13.45;6.10;;;;;;;4.53;100.00;100437.47;5049148;28;20824;-76
2024/01/06 02:55:13;;;;;;;14.57;5.88;;;;;;;4.51;100.00;100445.56;5049000;28;20061;-76
2024/01/06 02:57:40;;;;;;;12.18;4.60;;;;;;;4.46;100.00;100447.06;5048881;28;20048;-76
2024/01/06 03:00:07;;;;;;;14.40;4.40;;;;;;;4.46;100.00;100455.81;5048996;28;20460;-76
2024/01/06 03:02:32;;;;;;;13.50;5.80;;;;;;;4.45;100.00;100453.31;5049001;28;20059;-76
2024/01/06 03:04:58;;;;;;;10.98;4.05;;;;;;;4.42;100.00;100458.94;5048914;28;20025;-76
2024/01/06 03:07:23;;;;;;;11.65;4.40;;;;;;;4.46;100.00;100465.53;5047594;28;20033;-76
2024/01/06 03:09:48;;;;;;;16.80;7.47;;;;;;;4.47;100.00;100478.56;5047360;28;20507;-76
2024/01/06 03:12:14;;;;;;;15.45;5.78;;;;;;;4.44;100.00;100476.25;5047375;28;20469;-76
2024/01/06 03:14:39;;;;;;;11.15;5.20;;;;;;;4.43;100.00;100479.06;5047715;28;20558;-76
2024/01/06 03:17:05;;;;;;;11.30;4.18;;;;;;;4.44;100.00;100491.28;5048789;28;20025;-76
2024/01/06 03:19:30;;;;;;;15.35;6.88;;;;;;;4.38;100.00;100484.84;5048733;28;20036;-76
2024/01/06 03:21:56;;;;;;;14.82;5.05;;;;;;;4.40;100.00;100493.41;5048612;28;20033;-76
2024/01/06 03:24:23;;;;;;;12.27;4.93;;;;;;;4.36;100.00;100495.56;5048753;28;20567;-76
2024/01/06 03:26:49;;;;;;;12.68;4.85;;;;;;;4.39;100.00;100499.69;5048597;28;20037;-76
2024/01/06 03:29:14;;;;;;;12.43;5.28;;;;;;;4.39;100.00;100495.22;5048792;28;20032;-76
2024/01/06 03:31:48;;;;;;;13.85;5.30;;;;;;;4.39;100.00;100502.31;5048632;28;20086;-76
2024/01/06 03:34:14;;;;;;;11.35;5.18;;;;;;;4.32;100.00;100488.13;5048674;28;20033;-76
2024/01/06 03:36:40;;;;;;;11.95;4.93;;;;;;;4.32;100.00;100491.63;5048611;28;20110;-76
2024/01/06 03:39:06;;;;;;;12.68;6.55;;;;;;;4.31;100.00;100497.06;5048635;28;20452;-76
2024/01/06 03:41:32;;;;;;;11.00;4.50;;;;;;;4.29;100.00;100499.84;5048516;28;20108;-76
2024/01/06 03:43:57;;;;;;;13.45;6.22;;;;;;;4.29;100.00;100509.59;5048515;28;20031;-76
2024/01/06 03:46:23;;;;;;;14.05;5.50;;;;;;;4.25;100.00;100508.28;5048479;28;20472;-76
2024/01/06 03:48:48;;;;;;;11.82;4.68;;;;;;;4.18;100.00;100500.19;5048309;28;20053;-76
2024/01/06 03:51:14;;;;;;;14.27;5.13;;;;;;;4.22;100.00;100508.56;5047161;28;20040;-76
2024/01/06 03:53:40;;;;;;;13.82;5.40;;;;;;;4.20;100.00;100519.31;5049831;28;20032;-76
2024/01/06 03:56:06;;;;;;;14.88;5.60;;;;;;;4.18;100.00;100519.47;5052227;28;20040;-76
2024/01/06 03:58:31;;;;;;;13.85;6.57;;;;;;;4.15;100.00;100524.25;5052323;28;20029;-76
2024/01/06 04:00:57;;;;;;;13.20;5.70;;;;;;;4.10;100.00;100530.03;5052148;28;20383;-76
2024/01/06 04:03:22;;;;;;;13.55;5.10;;;;;;;4.10;100.00;100532.66;5052211;28;20678;-76
2024/01/06 04:05:47;;;;;;;12.25;5.13;;;;;;;4.05;100.00;100539.41;5052111;28;20033;-76
2024/01/06 04:08:13;;;;;;;16.35;6.57;;;;;;;4.02;100.00;100537.09;5052036;28;20024;-76
2024/01/06 04:10:39;;;;;;;14.68;6.75;;;;;;;3.97;100.00;100531.47;5052035;28;20032;-76
2024/01/06 04:13:04;;;;;;;14.63;5.57;;;;;;;3.99;100.00;100532.97;5050620;28;20090;-76
2024/01/06 04:15:30;;;;;;;13.32;5.15;;;;;;;3.98;100.00;100538.41;5052022;28;20127;-76
2024/01/06 04:18:01;;;;;;;11.45;4.93;;;;;;;3.95;100.00;100539.53;5051806;28;20056;-76
2024/01/06 04:20:26;;;;;;;12.05;5.53;;;;;;;3.98;100.00;100541.84;5051802;28;20025;-76
2024/01/06 04:22:51;;;;;;;14.90;6.70;;;;;;;3.91;100.00;100544.34;5051852;28;20031;-76
2024/01/06 04:25:17;;;;;;;15.43;6.38;;;;;;;3.93;100.00;100547.63;5050519;28;20075;-76
2024/01/06 04:27:42;;;;;;;15.65;5.30;;;;;;;3.95;100.00;100556.19;5050508;28;20443;-76
2024/01/06 04:30:08;;;;;;;17.63;7.95;;;;;;;3.95;100.00;100556.19;5051764;28;20067;-76
2024/01/06 04:32:33;;;;;;;16.05;5.68;;;;;;;3.92;100.00;100555.69;5051605;28;20029;-76
2024/01/06 04:34:59;;;;;;;15.60;6.55;;;;;;;3.93;100.00;100560.84;5051665;28;20086;-76
2024/01/06 04:37:24;;;;;;;13.57;6.57;;;;;;;3.91;100.00;100564.63;5051582;28;20029;-76
2024/01/06 04:39:49;;;;;;;14.38;5.47;;;;;;;3.90;100.00;100560.31;5051447;28;20029;-76
2024/01/06 04:42:15;;;;;;;13.80;5.78;;;;;;;3.92;100.00;100560.97;5050181;28;20047;-76
2024/01/06 04:44:40;;;;;;;14.50;6.22;;;;;;;3.92;100.00;100574.16;5051626;28;20036;-76
2024/01/06 04:47:06;;;;;;;14.18;5.60;;;;;;;3.91;100.00;100570.72;5051440;28;20851;-76
2024/01/06 04:49:31;;;;;;;16.98;7.65;;;;;;;3.82;100.00;100558.47;5051234;28;20076;-76
2024/01/06 04:51:56;;;;;;;16.52;6.70;;;;;;;3.89;100.00;100572.69;5051195;28;20120;-76
2024/01/06 04:54:22;;;;;;;17.27;5.95;;;;;;;3.91;100.00;100583.09;5051287;28;20112;-76
2024/01/06 04:56:47;;;;;;;14.55;5.72;;;;;;;3.88;100.00;100575.50;5050002;28;20094;-76
2024/01/06 04:59:13;;;;;;;15.98;6.07;;;;;;;3.91;100.00;100583.09;5051133;28;20040;-74
2024/01/06 05:01:38;;;;;;;14.55;6.15;;;;;;;3.91;100.00;100583.09;5050950;28;20032;-74
2024/01/06 05:04:04;;;;;;;17.70;7.20;;;;;;;3.91;100.00;100583.91;5050963;28;20044;-74
2024/01/06 05:06:30;;;;;;;15.50;6.97;;;;;;;3.90;100.00;100603.38;5048545;28;20052;-74
2024/01/06 05:08:55;;;;;;;13.43;5.93;;;;;;;3.90;100.00;100592.81;5050911;28;20430;-74
2024/01/06 05:11:20;;;;;;;14.73;6.10;;;;;;;3.91;100.00;100591.00;5051103;28;20033;-74
2024/01/06 05:13:46;;;;;;;14.93;6.32;;;;;;;3.89;100.00;100600.88;5050919;28;20029;-74
2024/01/06 05:16:11;;;;;;;14.57;7.03;;;;;;;3.88;100.00;100593.97;5050870;28;20033;-74
2024/01/06 05:18:36;;;;;;;14.55;6.32;;;;;;;3.88;100.00;100601.88;5050771;28;20037;-74
2024/01/06 05:21:03;;;;;;;15.07;6.38;;;;;;;3.83;100.00;100604.97;5050743;28;20028;-74
2024/01/06 05:23:29;;;;;;;15.40;6.18;;;;;;;3.86;100.00;100611.75;5050643;28;20033;-74
2024/01/06 05:25:54;;;;;;;14.15;5.15;;;;;;;3.85;100.00;100615.34;5050875;28;20063;-74
2024/01/06 05:28:19;;;;;;;14.65;5.60;;;;;;;3.84;100.00;100617.19;5050650;28;20041;-74
2024/01/06 05:30:45;;;;;;;16.08;6.30;;;;;;;3.86;100.00;100622.31;5050651;28;20029;-74
2024/01/06 05:33:15;;;;;;;13.68;5.15;;;;;;;3.84;100.00;100621.63;5050478;28;20032;-74
2024/01/06 05:35:41;;;;;;;14.25;6.10;;;;;;;3.86;100.00;100617.03;5050459;28;20579;-74
2024/01/06 05:38:06;;;;;;;13.77;5.63;;;;;;;3.87;100.00;100629.22;5049110;28;20021;-74
2024/01/06 05:40:31;;;;;;;16.50;7.13;;;;;;;3.81;100.00;100622.78;5050226;28;20087;-74
2024/01/06 05:42:57;;;;;;;17.02;7.75;;;;;;;3.85;100.00;100629.41;5048951;28;20029;-74
2024/01/06 05:45:22;;;;;;;15.05;6.60;;;;;;;3.85;100.00;100639.09;5050339;28;20033;-74
2024/01/06 05:47:48;;;;;;;12.73;5.30;;;;;;;3.85;100.00;100628.53;5050116;28;20032;-74
2024/01/06 05:50:15;;;;;;;15.18;5.85;;;;;;;3.85;100.00;100634.69;5050252;28;20123;-74
2024/01/06 05:52:41;;;;;;;15.05;5.60;;;;;;;3.83;100.00;100634.00;5050039;28;20569;-74
2024/01/06 05:55:07;;;;;;;15.70;6.25;;;;;;;3.80;100.00;100633.47;5049978;28;20021;-74
2024/01/06 05:57:32;;;;;;;14.85;6.45;;;;;;;3.79;100.00;100629.19;5049929;28;20040;-74
2024/01/06 05:59:58;;;;;;;13.57;5.50;;;;;;;3.80;100.00;100647.50;5050092;28;20033;-74
2024/01/06 06:02:24;;;;;;;13.77;5.90;;;;;;;3.80;100.00;100651.94;5049923;28;20075;-74
2024/01/06 06:04:49;;;;;;;16.02;6.03;;;;;;;3.79;100.00;100652.94;5049937;28;20078;-74
2024/01/06 06:07:14;;;;;;;15.50;5.03;;;;;;;3.78;100.00;100654.75;5049868;28;20025;-74
2024/01/06 06:09:40;;;;;;;14.02;5.63;;;;;;;3.75;100.00;100655.06;5049795;28;20862;-74
2024/01/06 06:12:06;;;;;;;17.67;6.82;;;;;;;3.77;100.00;100665.44;5048383;28;20499;-74
2024/01/06 06:14:31;;;;;;;12.38;4.40;;;;;;;3.75;100.00;100665.63;5049673;28;20037;-74
2024/01/06 06:16:57;;;;;;;15.05;6.40;;;;;;;3.76;100.00;100669.91;5049189;28;20503;-74
2024/01/06 06:19:22;;;;;;;16.55;6.32;;;;;;;3.76;100.00;100671.72;5049603;28;20032;-74
2024/01/06 06:21:47;;;;;;;16.77;7.32;;;;;;;3.74;100.00;100683.22;5049513;28;20029;-74
2024/01/06 06:24:13;;;;;;;16.15;6.68;;;;;;;3.75;100.00;100684.06;5049559;28;20037;-74
2024/01/06 06:26:38;;;;;;;17.55;7.40;;;;;;;3.74;100.00;100685.88;5049782;28;20043;-74
2024/01/06 06:29:04;;;;;;;14.15;5.70;;;;;;;3.72;100.00;100694.91;5049511;28;20029;-74
2024/01/06 06:31:29;;;;;;;15.45;6.07;;;;;;;3.69;100.00;100701.34;5049476;28;20116;-74
2024/01/06 06:33:54;;;;;;;15.52;5.28;;;;;;;3.67;100.00;100705.13;5049465;28;20037;-74
2024/01/06 06:36:20;;;;;;;15.50;6.78;;;;;;;3.65;100.00;100697.38;5049326;28;20480;-74
2024/01/06 06:38:45;;;;;;;16.17;6.10;;;;;;;3.67;100.00;100707.78;5048128;28;20392;-74
2024/01/06 06:41:11;;;;;;;13.25;5.55;;;;;;;3.65;100.00;100710.56;5049171;28;20479;-74
2024/01/06 06:43:36;;;;;;;16.88;6.88;;;;;;;3.65;100.00;100715.00;5049309;28;20175;-74
2024/01/06 06:46:02;;;;;;;16.92;6.90;;;;;;;3.62;100.00;100713.50;5049204;28;20036;-74
2024/01/06 06:48:27;;;;;;;15.68;6.55;;;;;;;3.62;100.00;100713.50;5049041;28;20064;-74
2024/01/06 06:50:53;;;;;;;14.73;6.45;;;;;;;3.61;100.00;100718.91;5047833;28;20040;-74
2024/01/06 06:53:18;;;;;;;16.50;5.47;;;;;;;3.59;100.00;100723.50;5049118;28;20488;-74
2024/01/06 06:55:43;;;;;;;16.42;5.90;;;;;;;3.58;100.00;100733.25;5049126;28;20884;-74
2024/01/06 06:58:09;;;;;;;18.15;6.95;;;;;;;3.58;100.00;100732.41;5048949;28;20040;-75
2024/01/06 07:00:35;;;;;;;17.45;6.35;;;;;;;3.58;100.00;100746.41;5047555;28;20090;-74
2024/01/06 07:03:00;;;;;;;15.57;5.85;;;;;;;3.59;100.00;100760.44;5047599;28;20040;-74
2024/01/06 07:05:26;;;;;;;18.58;6.95;;;;;;;3.56;100.00;100755.47;5048939;28;20146;-74
2024/01/06 07:07:51;;;;;;;16.05;7.40;;;;;;;3.47;100.00;100757.22;5048865;28;20459;-74
2024/01/06 07:10:17;;;;;;;16.35;6.47;;;;;;;3.46;100.00;100763.50;5048734;28;20048;-74
2024/01/06 07:12:43;;;;;;;17.45;6.43;;;;;;;3.42;100.00;100762.13;5048633;28;20031;-74
2024/01/06 07:15:11;;;;;;;17.10;7.80;;;;;;;3.36;100.00;100765.38;5048762;28;20029;-74
2024/01/06 07:17:38;;;;;;;15.60;7.13;;;;;;;3.33;100.00;100770.94;5047350;28;20036;-74
2024/01/06 07:20:06;;;;;;;16.50;6.13;;;;;;;3.28;100.00;100769.59;5048634;28;20091;-74
2024/01/06 07:22:32;;;;;;;15.50;5.97;;;;;;;3.28;100.00;100776.69;5048532;28;20029;-74
2024/01/06 07:24:57;;;;;;;20.02;7.30;;;;;;;3.25;100.00;100780.44;5048563;28;20021;-74
2024/01/06 07:27:23;;;;;;;14.02;5.82;;;;;;;3.24;100.00;100786.66;5048629;28;20183;-73
2024/01/06 07:29:48;;;;;;;12.70;5.85;;;;;;;3.23;100.00;100786.84;5051648;28;20036;-74
2024/01/06 07:32:13;;;;;;;15.80;6.43;;;;;;;3.21;100.00;100786.97;5052598;28;20077;-74
2024/01/06 07:34:39;;;;;;;16.20;5.55;;;;;;;3.22;100.00;100793.06;5050885;28;20094;-74
2024/01/06 07:37:05;;;;;;;13.70;6.03;;;;;;;3.20;100.00;100792.41;5052461;28;20029;-74
2024/01/06 07:39:31;;;;;;;15.77;5.95;;;;;;;3.17;100.00;100790.91;5051237;28;20396;-74
2024/01/06 07:41:56;;;;;;;15.57;5.80;;;;;;;3.15;100.00;100784.13;5052476;28;20029;-74
2024/01/06 07:44:24;;;;;;;17.08;5.80;;;;;;;3.14;100.00;100793.81;5051264;28;20480;-73
2024/01/06 07:46:52;;;;;;;13.63;5.28;;;;;;;3.16;100.00;100801.59;5052543;28;20100;-74
2024/01/06 07:49:18;;;;;;;17.30;7.03;;;;;;;3.14;100.00;100806.16;5051549;28;20115;-74
2024/01/06 07:51:43;;;;;;;18.42;6.55;;;;;;;3.13;100.00;100807.16;5051712;28;20720;-74
2024/01/06 07:54:09;;;;;;;17.95;7.65;;;;;;;3.12;100.00;100822.16;5051755;28;20024;-74
2024/01/06 07:56:35;;;;;;;16.92;6.40;;;;;;;3.09;100.00;100825.06;5051761;28;20044;-74
2024/01/06 07:59:01;;;;;;;18.20;6.60;;;;;;;3.09;100.00;100822.41;5052922;28;20041;-74
2024/01/06 08:01:26;;;;;;;18.33;6.35;;;;;;;3.10;100.00;100824.09;5052222;28;20403;-73
2024/01/06 08:03:52;;;;;;;16.63;6.95;;;;;;;3.08;100.00;100826.88;5052260;28;20124;-74
2024/01/06 08:06:17;;;;;;;15.95;6.93;;;;;;;3.08;100.00;100833.94;5052091;28;20056;-74
2024/01/06 08:08:42;;;;;;;19.92;7.45;;;;;;;3.06;100.00;100836.72;5052073;28;20097;-75
2024/01/06 08:11:08;;;;;;;18.88;6.47;;;;;;;3.05;100.00;100842.16;5051933;28;20056;-75
2024/01/06 08:13:34;;;;;;;17.02;6.05;;;;;;;3.04;100.00;100846.59;5051887;28;20060;-75
2024/01/06 08:16:00;;;;;;;17.20;6.32;;;;;;;3.02;100.00;100848.53;5051995;28;20187;-75
2024/01/06 08:18:25;;;;;;;17.95;6.45;;;;;;;2.96;100.00;100845.66;5050224;28;20037;-75
2024/01/06 08:20:50;;;;;;;18.23;8.15;;;;;;;2.92;100.00;100852.22;5050411;28;20040;-74
2024/01/06 08:23:18;;;;;;;19.15;7.97;;;;;;;2.93;100.00;100864.41;5051861;28;20120;-75
2024/01/06 08:25:45;;;;;;;19.52;8.30;;;;;;;2.91;100.00;100863.69;5050607;28;20040;-75
2024/01/06 08:28:11;;;;;;;16.15;7.47;;;;;;;2.93;100.00;100869.66;5050591;28;20033;-75
2024/01/06 08:30:36;;;;;;;19.20;7.63;;;;;;;2.93;100.00;100875.75;5051737;28;20043;-74
2024/01/06 08:33:02;;;;;;;17.73;8.32;;;;;;;2.94;100.00;100880.06;5050305;28;20162;-74
2024/01/06 08:35:27;;;;;;;19.08;9.18;;;;;;;2.87;100.00;100875.53;5051726;28;20037;-74
2024/01/06 08:37:52;;;;;;;21.35;8.85;;;;;;;2.95;100.00;100888.78;5051294;28;20072;-72
2024/01/06 08:40:18;;;;;;;18.70;7.03;;;;;;;2.96;100.00;100900.97;5050836;28;20028;-74
2024/01/06 08:42:44;;;;;;;17.17;6.88;;;;;;;2.95;100.00;100902.78;5050816;28;20091;-74
2024/01/06 08:45:09;;;;;;;19.00;7.10;;;;;;;2.96;100.00;100909.72;5050008;28;20938;-73
2024/01/06 08:47:34;;;;;;;16.90;7.20;;;;;;;2.95;100.00;100909.88;5049555;28;20025;-74
2024/01/06 08:50:00;;;;;;;17.92;7.85;;;;;;;2.94;100.00;100913.50;5049983;28;20531;-77
2024/01/06 08:52:25;;;;;;;17.20;7.45;;;;;;;2.94;100.00;100918.75;5049921;28;20052;-75
2024/01/06 08:54:50;;;;;;;17.55;6.88;;;;;;;2.94;100.00;100924.03;5049191;28;20558;-76
2024/01/06 08:57:16;;;;;;;18.08;7.10;;;;;;;2.89;100.00;100923.63;5049231;28;20090;-72
2024/01/06 08:59:41;;;;;;;14.20;6.32;;;;;;;2.92;100.00;100931.25;5048941;28;20036;-76
2024/01/06 09:02:07;;;;;;;15.95;7.38;;;;;;;2.94;100.00;100931.94;5049078;28;20064;-74
2024/01/06 09:04:32;;;;;;;17.63;7.75;;;;;;;2.94;100.00;100931.94;5049115;28;20037;-76
2024/01/06 09:06:58;;;;;;;14.73;6.55;;;;;;;2.97;100.00;100932.47;5049284;28;20047;-74
2024/01/06 09:09:24;;;;;;;15.45;6.82;;;;;;;2.98;100.00;100939.38;5049062;28;20029;-75
2024/01/06 09:11:49;;;;;;;17.92;7.13;;;;;;;3.00;100.00;100942.69;5049019;28;20036;-76
2024/01/06 09:14:17;;;;;;;15.18;6.03;;;;;;;2.94;100.00;100942.47;5048615;28;20114;-74
2024/01/06 09:16:42;;;;;;;16.38;7.10;;;;;;;2.99;100.00;100948.13;5048554;28;20059;-76
2024/01/06 09:19:07;;;;;;;18.10;6.63;;;;;;;2.92;100.00;100941.78;5048815;28;20477;-76
2024/01/06 09:21:33;;;;;;;14.15;6.15;;;;;;;3.00;100.00;100957.69;5048744;28;20477;-75
2024/01/06 09:24:00;;;;;;;15.13;6.47;;;;;;;2.98;100.00;100957.81;5049141;28;20040;-73
2024/01/06 09:26:25;;;;;;;13.20;5.97;;;;;;;2.97;100.00;100958.81;5050681;28;20033;-71
2024/01/06 09:28:51;;;;;;;12.40;4.85;;;;;;;2.95;100.00;100960.75;5050402;28;20247;-72
2024/01/06 09:31:16;;;;;;;14.65;6.90;;;;;;;2.95;100.00;100973.09;5049262;28;20033;-72
2024/01/06 09:33:41;;;;;;;18.30;6.75;;;;;;;2.94;100.00;100969.63;5050411;28;20029;-73
2024/01/06 09:36:11;;;;;;;16.75;6.95;;;;;;;2.94;100.00;100981.97;5049000;28;20036;-72
2024/01/06 09:38:36;;;;;;;17.02;7.60;;;;;;;2.92;100.00;100984.75;5050382;28;20033;-72
2024/01/06 09:41:02;;;;;;;14.48;5.72;;;;;;;2.94;100.00;100981.97;5050405;28;20043;-72
2024/01/06 09:43:27;;;;;;;15.60;6.63;;;;;;;2.93;100.00;100991.66;5050259;28;20175;-72
2024/01/06 09:46:01;;;;;;;19.08;7.63;;;;;;;2.93;100.00;100996.94;5050142;28;20036;-72
2024/01/06 09:48:33;;;;;;;20.05;9.02;;;;;;;2.87;100.00;100996.69;5049946;28;20144;-72
2024/01/06 09:51:01;;;;;;;16.88;6.07;;;;;;;2.90;100.00;101005.13;5049528;28;20036;-73
2024/01/06 09:53:33;;;;;;;16.13;7.22;;;;;;;2.90;100.00;101012.19;5050142;28;20481;-73
2024/01/06 09:55:58;;;;;;;;;;;;;;;2.94;100.00;101019.69;5050270;28;20036;-72
2024/01/06 09:58:29;;;;;;;15.05;6.20;;;;;;;2.90;100.00;101025.38;5050064;28;19931;-73
2024/01/06 10:00:56;;;;;;;12.90;6.00;;;;;;;2.85;100.00;101010.00;5049857;28;20040;-72
2024/01/06 10:03:21;;;;;;;16.98;8.40;;;;;;;2.90;100.00;101028.00;5049949;28;20025;-73
2024/01/06 10:05:48;;;;;;;15.88;5.60;;;;;;;2.88;100.00;101030.78;5049821;28;20055;-73
2024/01/06 10:08:13;;;;;;;14.80;6.18;;;;;;;2.85;100.00;101023.97;5049728;28;20036;-72
2024/01/06 10:10:39;;;;;;;16.90;7.65;;;;;;;2.89;100.00;101035.09;5049657;28;20025;-72
2024/01/06 10:13:06;;;;;;;13.88;5.80;;;;;;;2.87;100.00;101039.66;5049586;28;20036;-72
2024/01/06 10:15:31;;;;;;;15.35;6.38;;;;;;;2.81;100.00;101043.69;5049840;28;20472;-72
2024/01/06 10:17:57;;;;;;;16.58;6.28;;;;;;;2.77;100.00;101041.47;5049600;28;20032;-73
2024/01/06 10:20:22;;;;;;;15.20;6.93;;;;;;;2.83;100.00;101060.19;5049569;28;20029;-73
2024/01/06 10:22:48;;;;;;;15.48;6.50;;;;;;;2.79;100.00;101050.06;5049448;28;20112;-73
2024/01/06 10:25:14;;;;;;;15.25;6.80;;;;;;;2.79;100.00;101052.72;5049366;28;20530;-72
2024/01/06 10:27:41;;;;;;;17.55;7.63;;;;;;;2.80;100.00;101059.63;5048338;28;20040;-72
2024/01/06 10:30:08;;;;;;;18.67;7.43;;;;;;;2.83;100.00;101059.38;5049304;28;20020;-72
2024/01/06 10:32:34;;;;;;;17.73;6.18;;;;;;;2.87;100.00;101042.28;5049471;28;20079;-72
2024/01/06 10:35:01;;;;;;;18.50;8.52;;;;;;;2.93;100.00;101059.31;5049293;28;20033;-72
2024/01/06 10:37:27;;;;;;;16.33;7.10;;;;;;;2.96;100.00;101059.03;5049471;28;20553;-72
2024/01/06 10:40:18;;;;;;;14.48;6.72;;;;;;;3.01;100.00;101051.53;5049204;28;20083;-72
2024/01/06 10:42:45;;;;;;;19.25;7.25;;;;;;;2.95;100.00;101054.75;5047625;28;20049;-72
2024/01/06 10:45:13;;;;;;;16.42;7.00;;;;;;;2.97;100.00;101055.44;5049326;28;20546;-72
2024/01/06 10:47:42;;;;;;;17.63;7.53;;;;;;;2.97;100.00;101053.63;5049774;28;20025;-72
2024/01/06 10:50:08;;;;;;;17.35;8.13;;;;;;;2.98;100.00;101067.63;5047755;28;20254;-72
2024/01/06 10:52:35;;;;;;;16.10;6.88;;;;;;;3.00;100.00;101060.44;5049138;28;20111;-72
2024/01/06 10:55:02;;;;;;;16.67;7.72;;;;;;;2.98;100.00;101068.47;5049058;28;20025;-72
2024/01/06 10:57:28;;;;;;;19.75;7.88;;;;;;;3.01;100.00;101065.56;5049104;28;20025;-72
2024/01/06 10:59:54;;;;;;;17.33;7.55;;;;;;;3.00;100.00;101077.06;5048859;28;20041;-72
2024/01/06 11:02:20;;;;;;;14.70;7.07;;;;;;;3.04;100.00;101072.38;5049021;28;20078;-72
2024/01/06 11:04:47;;;;;;;14.52;6.65;;;;;;;3.07;100.00;101074.72;5048981;28;20041;-72
2024/01/06 11:07:16;;;;;;;18.05;7.53;;;;;;;3.05;100.00;101069.56;5048450;28;20503;-72
2024/01/06 11:10:02;;;;;;;21.58;8.65;;;;;;;3.07;100.00;101078.16;5048574;28;20029;-73